createdAt,value
2022-11-04T00:01:05.142Z,99671.06
2022-11-04T00:04:02.879Z,99666.56
2022-11-04T00:06:59.922Z,99673.59
2022-11-04T00:09:56.793Z,99666.25
2022-11-04T00:12:53.707Z,99670.28
2022-11-04T00:16:09.804Z,99672.22
2022-11-04T00:19:07.037Z,99678.41
2022-11-04T00:22:23.152Z,99669.94
2022-11-04T00:25:38.463Z,99675.97
2022-11-04T00:28:44.475Z,99684.84
2022-11-04T00:32:00.705Z,99688.97
2022-11-04T00:34:57.952Z,99679.66
2022-11-04T00:37:55.062Z,99697.09
2022-11-04T00:40:51.633Z,99696.97
2022-11-04T00:43:49.096Z,99703.97
2022-11-04T00:46:45.837Z,99705.94
2022-11-04T00:49:42.662Z,99708.41
2022-11-04T00:52:40.181Z,99716.50
2022-11-04T00:55:36.689Z,99727.41
2022-11-04T00:58:33.496Z,99748.09
2022-11-04T01:01:31.230Z,99746.81
2022-11-04T01:04:28.883Z,99731.88
2022-11-04T01:07:26.120Z,99731.13
2022-11-04T01:10:23.109Z,99737.59
2022-11-04T01:13:20.142Z,99733.00
2022-11-04T01:16:16.799Z,99733.47
2022-11-04T01:19:14.159Z,99746.78
2022-11-04T01:22:11.019Z,99747.31
2022-11-04T01:25:08.999Z,99738.34
2022-11-04T01:28:06.428Z,99724.53
2022-11-04T01:31:08.004Z,99751.38
2022-11-04T01:34:04.912Z,99730.78
2022-11-04T01:37:02.063Z,99730.97
2022-11-04T01:39:58.583Z,99741.44
2022-11-04T01:42:55.923Z,99740.75
2022-11-04T01:45:56.397Z,99752.75
2022-11-04T01:48:54.562Z,99743.91
2022-11-04T01:51:54.116Z,99776.81
2022-11-04T01:54:50.855Z,99780.53
2022-11-04T01:57:48.856Z,99771.47
2022-11-04T02:00:45.740Z,99782.94
2022-11-04T02:03:54.817Z,99768.88
2022-11-04T02:07:03.632Z,99773.78
2022-11-04T02:10:00.702Z,99772.66
2022-11-04T02:12:59.846Z,99775.75
2022-11-04T02:16:18.633Z,99797.66
2022-11-04T02:19:21.964Z,99795.84
2022-11-04T02:22:35.447Z,99806.16
2022-11-04T02:25:47.959Z,99817.97
2022-11-04T02:29:03.316Z,99822.44
2022-11-04T02:32:19.121Z,99820.59
2022-11-04T02:35:42.277Z,99833.34
2022-11-04T02:38:42.691Z,99830.44
2022-11-04T02:41:40.097Z,99834.56
2022-11-04T02:44:40.945Z,99831.28
2022-11-04T02:47:39.001Z,99824.75
2022-11-04T02:50:44.135Z,99820.25
2022-11-04T02:53:45.790Z,99826.94
2022-11-04T02:56:45.716Z,99818.78
2022-11-04T03:00:05.280Z,99828.91
2022-11-04T03:03:12.650Z,99832.13
2022-11-04T03:06:10.371Z,99843.19
2022-11-04T03:09:06.742Z,99856.34
2022-11-04T03:12:06.923Z,99858.75
2022-11-04T03:15:06.329Z,99866.03
2022-11-04T03:18:24.006Z,99857.13
2022-11-04T03:21:20.912Z,99877.22
2022-11-04T03:24:17.851Z,99862.03
2022-11-04T03:27:27.936Z,99872.22
2022-11-04T03:30:24.944Z,99861.69
2022-11-04T03:33:54.649Z,99861.75
2022-11-04T03:36:52.054Z,99868.31
2022-11-04T03:39:48.777Z,99862.16
2022-11-04T03:42:57.034Z,99870.88
2022-11-04T03:45:54.681Z,99878.19
2022-11-04T03:48:53.295Z,99885.75
2022-11-04T03:51:51.063Z,99888.88
2022-11-04T03:54:47.791Z,99895.16
2022-11-04T03:57:48.031Z,99897.59
2022-11-04T04:00:49.769Z,99910.06
2022-11-04T04:03:56.523Z,99905.22
2022-11-04T04:06:56.233Z,99920.28
2022-11-04T04:10:28.263Z,99925.38
2022-11-04T04:13:43.258Z,99922.81
2022-11-04T04:16:42.662Z,99914.94
2022-11-04T04:19:40.584Z,99924.69
2022-11-04T04:22:43.553Z,99930.59
2022-11-04T04:25:59.824Z,99932.28
2022-11-04T04:28:56.915Z,99953.78
2022-11-04T04:31:57.707Z,99950.72
2022-11-04T04:35:14.935Z,99942.28
2022-11-04T04:38:46.061Z,99966.47
2022-11-04T04:42:01.582Z,99958.22
2022-11-04T04:45:03.498Z,99966.69
2022-11-04T04:48:01.144Z,99982.81
2022-11-04T04:50:57.787Z,99989.13
2022-11-04T04:53:55.117Z,99997.16
2022-11-04T04:56:52.337Z,100005.34
2022-11-04T04:59:48.796Z,100001.88
2022-11-04T05:02:46.008Z,100000.16
2022-11-04T05:05:43.104Z,99997.72
2022-11-04T05:08:39.965Z,100010.56
2022-11-04T05:11:36.808Z,100003.28
2022-11-04T05:14:34.079Z,100007.38
2022-11-04T05:17:30.902Z,100007.44
2022-11-04T05:20:29.034Z,100008.75
2022-11-04T05:23:26.277Z,100009.72
2022-11-04T05:26:23.229Z,100003.22
2022-11-04T05:29:20.306Z,100012.47
2022-11-04T05:32:17.085Z,100006.88
2022-11-04T05:35:14.497Z,100012.88
2022-11-04T05:38:11.914Z,100015.31
2022-11-04T05:41:10.639Z,100021.00
2022-11-04T05:44:09.690Z,100016.09
2022-11-04T05:47:06.938Z,100036.09
2022-11-04T05:50:04.174Z,100032.66
2022-11-04T05:53:01.017Z,100046.00
2022-11-04T05:55:58.349Z,100048.41
2022-11-04T05:58:55.323Z,100060.66
2022-11-04T06:01:52.135Z,100068.41
2022-11-04T06:04:49.061Z,100072.91
2022-11-04T06:07:45.996Z,100082.91
2022-11-04T06:10:43.755Z,100089.53
2022-11-04T06:13:40.848Z,100089.28
2022-11-04T06:16:38.075Z,100088.03
2022-11-04T06:19:34.980Z,100093.81
2022-11-04T06:22:31.842Z,100104.56
2022-11-04T06:25:31.368Z,100111.31
2022-11-04T06:28:29.028Z,100110.50
2022-11-04T06:31:27.358Z,100103.16
2022-11-04T06:34:24.335Z,100119.59
2022-11-04T06:37:21.274Z,100113.44
2022-11-04T06:40:18.157Z,100129.50
2022-11-04T06:43:15.247Z,100137.34
2022-11-04T06:46:26.293Z,100142.75
2022-11-04T06:49:23.464Z,100145.56
2022-11-04T06:52:20.019Z,100153.22
2022-11-04T06:55:16.903Z,100167.34
2022-11-04T06:58:13.811Z,100176.84
2022-11-04T07:01:15.879Z,100189.06
2022-11-04T07:04:16.288Z,100189.06
2022-11-04T07:07:13.125Z,100185.72
2022-11-04T07:10:10.099Z,100196.13
2022-11-04T07:13:07.391Z,100201.47
2022-11-04T07:16:08.052Z,100186.75
2022-11-04T07:19:05.528Z,100207.13
2022-11-04T07:22:03.714Z,100212.31
2022-11-04T07:25:01.282Z,100222.81
2022-11-04T07:28:01.225Z,100219.78
2022-11-04T07:30:59.434Z,100221.50
2022-11-04T07:33:56.332Z,100221.84
2022-11-04T07:36:53.176Z,100216.84
2022-11-04T07:39:50.084Z,100226.97
2022-11-04T07:42:47.117Z,100235.78
2022-11-04T07:45:47.138Z,100227.03
2022-11-04T07:48:44.067Z,100237.22
2022-11-04T07:51:41.163Z,100232.88
2022-11-04T07:54:38.102Z,100233.31
2022-11-04T07:57:35.230Z,100241.91
2022-11-04T08:00:32.159Z,100234.88
2022-11-04T08:03:29.085Z,100240.50
2022-11-04T08:06:26.299Z,100243.84
2022-11-04T08:09:23.568Z,100250.06
2022-11-04T08:12:23.900Z,100259.78
2022-11-04T08:15:21.385Z,100267.44
2022-11-04T08:18:18.271Z,100283.69
2022-11-04T08:21:15.358Z,100277.75
2022-11-04T08:24:12.044Z,100268.28
2022-11-04T08:27:10.119Z,100282.09
2022-11-04T08:30:07.674Z,100297.66
2022-11-04T08:33:05.773Z,100287.22
2022-11-04T08:36:09.454Z,100285.03
2022-11-04T08:39:10.924Z,100295.59
2022-11-04T08:42:08.179Z,100308.63
2022-11-04T08:45:05.727Z,100305.81
2022-11-04T08:48:05.895Z,100312.00
2022-11-04T08:51:03.405Z,100317.13
2022-11-04T08:54:00.192Z,100318.88
2022-11-04T08:56:56.968Z,100317.53
2022-11-04T08:59:54.531Z,100324.72
2022-11-04T09:02:51.640Z,100318.03
2022-11-04T09:05:49.289Z,100319.66
2022-11-04T09:08:46.324Z,100311.00
2022-11-04T09:11:43.699Z,100313.06
2022-11-04T09:14:41.320Z,100321.81
2022-11-04T09:17:38.567Z,100337.97
2022-11-04T09:20:38.534Z,100339.78
2022-11-04T09:23:35.705Z,100352.59
2022-11-04T09:26:33.456Z,100352.16
2022-11-04T09:29:33.775Z,100336.69
2022-11-04T09:32:31.232Z,100356.41
2022-11-04T09:35:28.268Z,100354.06
2022-11-04T09:38:25.871Z,100355.63
2022-11-04T09:41:51.227Z,100346.72
2022-11-04T09:45:21.194Z,100345.13
2022-11-04T09:48:28.582Z,100342.94
2022-11-04T09:51:48.368Z,100345.06
2022-11-04T09:55:11.398Z,100335.16
2022-11-04T09:58:09.750Z,100336.63
2022-11-04T10:01:10.469Z,100347.03
2022-11-04T10:04:32.662Z,100350.97
2022-11-04T10:07:51.263Z,100352.69
2022-11-04T10:11:31.396Z,100350.41
2022-11-04T10:14:36.964Z,100343.81
2022-11-04T10:17:41.127Z,100348.41
2022-11-04T10:20:53.350Z,100371.38
2022-11-04T10:24:07.641Z,100380.22
2022-11-04T10:27:05.382Z,100369.53
2022-11-04T10:30:15.909Z,100376.06
2022-11-04T10:33:20.486Z,100396.94
2022-11-04T10:36:17.594Z,100395.09
2022-11-04T10:39:18.520Z,100402.75
2022-11-04T10:42:17.648Z,100397.63
2022-11-04T10:45:15.502Z,100387.91
2022-11-04T10:48:16.543Z,100392.41
2022-11-04T10:51:13.132Z,100396.28
2022-11-04T10:54:10.765Z,100408.88
2022-11-04T10:57:08.525Z,100398.34
2022-11-04T11:00:06.009Z,100420.25
2022-11-04T11:03:03.202Z,100407.91
2022-11-04T11:06:10.812Z,100425.38
2022-11-04T11:09:31.344Z,100403.38
2022-11-04T11:12:50.466Z,100416.81
2022-11-04T11:15:49.818Z,100413.75
2022-11-04T11:19:12.731Z,100409.69
2022-11-04T11:22:31.655Z,100412.91
2022-11-04T11:25:35.416Z,100406.34
2022-11-04T11:28:38.049Z,100409.69
2022-11-04T11:31:39.209Z,100418.72
2022-11-04T11:34:37.719Z,100432.03
2022-11-04T11:37:34.281Z,100436.28
2022-11-04T11:40:57.340Z,100435.16
2022-11-04T11:44:06.065Z,100428.22
2022-11-04T11:47:05.394Z,100420.44
2022-11-04T11:50:20.412Z,100448.41
2022-11-04T11:53:18.478Z,100444.28
2022-11-04T11:56:52.128Z,100434.22
2022-11-04T12:10:49.777Z,100450.19
2022-11-04T12:13:50.014Z,100448.59
2022-11-04T12:17:03.920Z,100439.69
2022-11-04T12:20:23.172Z,100440.81
2022-11-04T12:23:29.319Z,100450.97
2022-11-04T12:26:34.872Z,100431.66
2022-11-04T12:30:10.521Z,100435.81
2022-11-04T12:33:39.475Z,100429.22
2022-11-04T12:36:58.087Z,100419.13
2022-11-04T12:40:11.782Z,100437.91
2022-11-04T12:43:29.938Z,100446.91
2022-11-04T12:46:30.539Z,100444.00
2022-11-04T12:49:42.727Z,100447.25
2022-11-04T12:53:11.844Z,100458.59
2022-11-04T12:56:14.758Z,100458.78
2022-11-04T12:59:33.429Z,100453.88
2022-11-04T13:03:05.602Z,100448.31
2022-11-04T13:06:06.122Z,100453.69
2022-11-04T13:09:06.703Z,100456.97
2022-11-04T13:12:13.621Z,100453.38
2022-11-04T13:15:22.435Z,100446.31
2022-11-04T13:18:20.348Z,100451.81
2022-11-04T13:21:19.817Z,100474.03
2022-11-04T13:24:31.756Z,100487.63
2022-11-04T13:27:35.515Z,100481.59
2022-11-04T13:31:06.182Z,100486.09
2022-11-04T13:34:23.051Z,100498.69
2022-11-04T13:37:40.818Z,100476.16
2022-11-04T13:40:40.525Z,100486.66
2022-11-04T13:43:40.927Z,100473.88
2022-11-04T13:46:38.559Z,100483.38
2022-11-04T13:49:37.205Z,100480.94
2022-11-04T13:52:36.334Z,100489.56
2022-11-04T13:55:33.123Z,100500.72
2022-11-04T13:58:30.589Z,100512.69
2022-11-04T14:01:29.834Z,100518.38
2022-11-04T14:04:31.537Z,100522.75
2022-11-04T14:08:02.948Z,100522.50
2022-11-04T14:11:10.773Z,100519.69
2022-11-04T14:14:15.707Z,100518.94
2022-11-04T14:17:34.090Z,100524.19
2022-11-04T14:20:31.852Z,100522.16
2022-11-04T14:23:28.359Z,100524.94
2022-11-04T14:26:47.097Z,100533.56
2022-11-04T14:29:52.263Z,100527.47
2022-11-04T14:32:49.487Z,100533.59
2022-11-04T14:35:46.487Z,100545.03
2022-11-04T14:38:43.426Z,100544.13
2022-11-04T14:41:40.299Z,100546.84
2022-11-04T14:44:45.735Z,100542.75
2022-11-04T14:47:48.479Z,100557.63
2022-11-04T14:50:46.581Z,100566.22
2022-11-04T14:53:43.400Z,100573.56
2022-11-04T14:56:41.672Z,100578.38
2022-11-04T14:59:38.336Z,100583.38
2022-11-04T15:02:35.832Z,100585.00
2022-11-04T15:05:36.322Z,100594.66
2022-11-04T15:08:34.777Z,100609.44
2022-11-04T15:11:49.934Z,100624.09
2022-11-04T15:14:46.556Z,100625.31
2022-11-04T15:17:43.540Z,100627.56
2022-11-04T15:20:52.606Z,100623.53
2022-11-04T15:23:51.167Z,100628.34
2022-11-04T15:26:51.953Z,100638.88
2022-11-04T15:30:00.383Z,100641.81
2022-11-04T15:33:00.066Z,100646.22
2022-11-04T15:35:57.703Z,100644.97
2022-11-04T15:38:58.523Z,100648.25
2022-11-04T15:42:16.232Z,100655.22
2022-11-04T15:45:22.490Z,100657.16
2022-11-04T15:48:33.747Z,100662.63
2022-11-04T15:51:34.383Z,100661.13
2022-11-04T15:54:33.583Z,100674.72
2022-11-04T15:57:34.650Z,100684.84
2022-11-04T16:00:31.606Z,100693.69
2022-11-04T16:03:28.702Z,100689.19
2022-11-04T16:06:34.840Z,100691.81
2022-11-04T16:09:32.148Z,100681.13
2022-11-04T16:12:35.321Z,100689.59
2022-11-04T16:15:40.217Z,100685.78
2022-11-04T16:18:58.923Z,100679.69
2022-11-04T16:22:03.394Z,100678.09
2022-11-04T16:25:01.472Z,100681.34
2022-11-04T16:28:00.511Z,100684.28
2022-11-04T16:31:02.477Z,100700.66
2022-11-04T16:33:59.905Z,100697.38
2022-11-04T16:36:58.899Z,100707.56
2022-11-04T16:39:58.435Z,100704.38
2022-11-04T16:42:56.183Z,100716.47
2022-11-04T16:45:54.376Z,100719.44
2022-11-04T16:48:51.601Z,100734.28
2022-11-04T16:51:53.792Z,100733.72
2022-11-04T16:54:50.701Z,100737.13
2022-11-04T16:57:47.661Z,100729.25
2022-11-04T17:00:44.839Z,100726.88
2022-11-04T17:03:43.224Z,100737.50
2022-11-04T17:06:40.790Z,100736.81
2022-11-04T17:09:37.609Z,100744.09
2022-11-04T17:12:34.661Z,100731.31
2022-11-04T17:15:31.953Z,100729.13
2022-11-04T17:18:30.676Z,100745.50
2022-11-04T17:21:28.624Z,100753.47
2022-11-04T17:24:25.581Z,100756.16
2022-11-04T17:27:22.554Z,100757.72
2022-11-04T17:30:21.873Z,100742.69
2022-11-04T17:33:19.168Z,100753.88
2022-11-04T17:36:18.082Z,100760.34
2022-11-04T17:39:15.479Z,100771.59
2022-11-04T17:42:31.231Z,100771.47
2022-11-04T17:45:28.553Z,100793.56
2022-11-04T17:48:25.599Z,100786.47
2022-11-04T17:51:23.089Z,100791.38
2022-11-04T17:54:21.377Z,100792.41
2022-11-04T17:57:19.067Z,100814.66
2022-11-04T18:00:17.126Z,100811.53
2022-11-04T18:03:14.749Z,100817.28
2022-11-04T18:06:12.065Z,100822.44
2022-11-04T18:09:11.012Z,100829.09
2022-11-04T18:12:26.298Z,100824.75
2022-11-04T18:15:23.506Z,100819.75
2022-11-04T18:18:20.895Z,100826.47
2022-11-04T18:21:17.828Z,100816.25
2022-11-04T18:24:15.096Z,100815.91
2022-11-04T18:27:12.479Z,100819.59
2022-11-04T18:30:10.460Z,100821.84
2022-11-04T18:33:08.335Z,100820.88
2022-11-04T18:36:06.105Z,100829.06
2022-11-04T18:39:06.607Z,100838.09
2022-11-04T18:42:03.423Z,100829.16
2022-11-04T18:45:00.833Z,100837.97
2022-11-04T18:47:57.869Z,100841.69
2022-11-04T18:50:54.361Z,100837.59
2022-11-04T18:53:52.017Z,100828.91
2022-11-04T18:56:48.882Z,100817.41
2022-11-04T18:59:46.158Z,100818.72
2022-11-04T19:02:43.609Z,100835.59
2022-11-04T19:05:41.841Z,100845.56
2022-11-04T19:08:42.373Z,100836.16
2022-11-04T19:11:42.930Z,100837.44
2022-11-04T19:14:40.361Z,100840.66
2022-11-04T19:17:37.794Z,100840.59
2022-11-04T19:20:35.672Z,100860.75
2022-11-04T19:23:33.269Z,100852.59
2022-11-04T19:26:32.794Z,100844.22
2022-11-04T19:29:30.035Z,100856.06
2022-11-04T19:32:26.785Z,100857.72
2022-11-04T19:35:23.709Z,100848.09
2022-11-04T19:38:22.170Z,100864.09
2022-11-04T19:41:38.268Z,100855.66
2022-11-04T19:44:35.562Z,100851.69
2022-11-04T19:47:33.068Z,100862.72
2022-11-04T19:50:29.618Z,100865.88
2022-11-04T19:53:26.473Z,100866.97
2022-11-04T19:56:24.256Z,100886.03
2022-11-04T19:59:21.852Z,100895.16
2022-11-04T20:02:19.204Z,100899.47
2022-11-04T20:05:16.848Z,100893.34
2022-11-04T20:08:14.255Z,100907.47
2022-11-04T20:11:12.963Z,100891.09
2022-11-04T20:14:09.996Z,100886.91
2022-11-04T20:17:07.029Z,100885.50
2022-11-04T20:20:04.270Z,100889.97
2022-11-04T20:23:01.596Z,100906.31
2022-11-04T20:26:12.873Z,100939.13
2022-11-04T20:29:12.033Z,100950.47
2022-11-04T20:32:09.572Z,100957.25
2022-11-04T20:35:07.333Z,100939.06
2022-11-04T20:38:04.764Z,100931.13
2022-11-04T20:41:03.668Z,100954.91
2022-11-04T20:44:00.852Z,100943.63
2022-11-04T20:46:57.617Z,100936.78
2022-11-04T20:49:55.042Z,100953.00
2022-11-04T20:52:51.974Z,100974.09
2022-11-04T20:55:49.128Z,100996.94
2022-11-04T20:58:48.360Z,100985.19
2022-11-04T21:01:46.494Z,100982.75
2022-11-04T21:04:43.987Z,101005.69
2022-11-04T21:07:40.861Z,101014.72
2022-11-04T21:10:38.037Z,101009.22
2022-11-04T21:13:34.903Z,101015.13
2022-11-04T21:16:31.775Z,101021.09
2022-11-04T21:19:28.521Z,101021.25
2022-11-04T21:22:25.963Z,101020.13
2022-11-04T21:25:23.444Z,101025.56
2022-11-04T21:28:20.741Z,101022.22
2022-11-04T21:31:17.812Z,101020.97
2022-11-04T21:34:15.034Z,101026.53
2022-11-04T21:37:12.084Z,101033.81
2022-11-04T21:40:09.300Z,101044.53
2022-11-04T21:43:07.017Z,101041.00
2022-11-04T21:46:08.826Z,101036.31
2022-11-04T21:49:06.037Z,101046.69
2022-11-04T21:52:02.897Z,101033.94
2022-11-04T21:54:59.711Z,101043.63
2022-11-04T21:57:57.264Z,101049.28
2022-11-04T22:00:57.261Z,101048.47
2022-11-04T22:03:59.513Z,101044.72
2022-11-04T22:06:56.605Z,101061.56
2022-11-04T22:09:53.895Z,101053.59
2022-11-04T22:12:51.459Z,101049.09
2022-11-04T22:16:01.601Z,101060.75
2022-11-04T22:19:00.884Z,101073.44
2022-11-04T22:21:57.856Z,101075.69
2022-11-04T22:25:03.285Z,101076.50
2022-11-04T22:28:00.785Z,101085.34
2022-11-04T22:31:03.954Z,101069.94
2022-11-04T22:34:01.266Z,101071.47
2022-11-04T22:36:57.838Z,101076.63
2022-11-04T22:39:54.992Z,101082.06
2022-11-04T22:42:52.054Z,101088.19
2022-11-04T22:45:48.684Z,101086.31
2022-11-04T22:48:46.210Z,101095.25
2022-11-04T22:51:43.221Z,101087.25
2022-11-04T22:54:39.767Z,101092.19
2022-11-04T22:57:36.726Z,101089.50
2022-11-04T23:00:33.720Z,101093.94
2022-11-04T23:03:31.199Z,101079.34
2022-11-04T23:06:28.935Z,101088.19
2022-11-04T23:09:25.954Z,101085.78
2022-11-04T23:12:41.204Z,101087.91
2022-11-04T23:15:59.541Z,101088.19
2022-11-04T23:18:56.888Z,101088.25
2022-11-04T23:22:13.186Z,101089.22
2022-11-04T23:25:10.069Z,101093.34
2022-11-04T23:28:36.023Z,101104.34
2022-11-04T23:31:32.710Z,101107.00
2022-11-04T23:34:48.216Z,101104.69
2022-11-04T23:37:44.970Z,101114.81
2022-11-04T23:40:42.308Z,101105.63
2022-11-04T23:43:38.677Z,101114.34
2022-11-04T23:46:54.740Z,101122.34
2022-11-04T23:50:10.966Z,101116.44
2022-11-04T23:53:26.529Z,101109.75
2022-11-04T23:56:42.443Z,101116.44
2022-11-04T23:59:58.650Z,101118.13
